createdAt,value
2017-08-05T00:01:41.898Z,54.70
2017-08-05T00:04:10.741Z,54.90
2017-08-05T00:06:39.635Z,55.00
2017-08-05T00:09:08.526Z,55.10
2017-08-05T00:11:37.409Z,55.20
2017-08-05T00:14:06.301Z,55.10
2017-08-05T00:16:35.180Z,55.20
2017-08-05T00:19:04.843Z,55.50
2017-08-05T00:21:33.741Z,55.40
2017-08-05T00:24:02.635Z,55.50
2017-08-05T00:26:31.539Z,55.50
2017-08-05T00:29:00.425Z,55.60
2017-08-05T00:31:29.300Z,55.70
2017-08-05T00:33:58.194Z,55.70
2017-08-05T00:36:27.087Z,55.70
2017-08-05T00:38:55.952Z,55.80
2017-08-05T00:41:24.835Z,56.50
2017-08-05T00:43:53.720Z,55.90
2017-08-05T00:46:22.618Z,55.90
2017-08-05T00:48:51.496Z,56.00
2017-08-05T00:51:20.394Z,56.00
2017-08-05T00:53:49.280Z,56.10
2017-08-05T00:56:18.153Z,56.20
2017-08-05T00:58:47.802Z,56.30
2017-08-05T01:01:16.684Z,56.20
2017-08-05T01:03:45.579Z,56.30
2017-08-05T01:06:14.470Z,56.30
2017-08-05T01:08:43.361Z,56.40
2017-08-05T01:11:12.248Z,56.40
2017-08-05T01:13:41.130Z,56.50
2017-08-05T01:16:10.032Z,56.50
2017-08-05T01:18:38.931Z,56.60
2017-08-05T01:21:07.816Z,56.70
2017-08-05T01:23:36.671Z,56.70
2017-08-05T01:26:06.325Z,56.60
2017-08-05T01:28:35.209Z,56.70
2017-08-05T01:31:04.088Z,56.70
2017-08-05T01:33:32.985Z,57.00
2017-08-05T01:36:01.875Z,57.00
2017-08-05T01:38:30.775Z,57.10
2017-08-05T01:40:59.661Z,57.20
2017-08-05T01:43:28.541Z,57.30
2017-08-05T01:45:57.437Z,57.40
2017-08-05T01:48:26.316Z,57.40
2017-08-05T01:50:55.961Z,57.70
2017-08-05T01:53:24.853Z,57.70
2017-08-05T01:55:53.708Z,57.70
2017-08-05T01:58:23.370Z,57.80
2017-08-05T02:00:51.550Z,57.70
2017-08-05T02:03:20.446Z,57.90
2017-08-05T02:05:49.337Z,57.80
2017-08-05T02:08:18.222Z,57.90
2017-08-05T02:10:46.413Z,57.90
2017-08-05T02:13:15.308Z,57.80
2017-08-05T02:15:44.193Z,58.00
2017-08-05T02:18:13.090Z,58.00
2017-08-05T02:20:41.972Z,58.20
2017-08-05T02:23:10.855Z,58.30
2017-08-05T02:25:39.716Z,58.40
2017-08-05T02:28:08.607Z,58.40
2017-08-05T02:30:37.494Z,58.40
2017-08-05T02:33:06.392Z,58.50
2017-08-05T02:35:35.284Z,58.60
2017-08-05T02:38:04.161Z,58.80
2017-08-05T02:40:33.038Z,59.00
2017-08-05T02:43:02.721Z,59.20
2017-08-05T02:45:31.608Z,59.10
2017-08-05T02:48:00.494Z,59.40
2017-08-05T02:50:29.385Z,59.30
2017-08-05T02:52:58.277Z,59.30
2017-08-05T02:55:27.172Z,59.30
2017-08-05T02:57:56.063Z,59.30
2017-08-05T03:00:24.958Z,59.50
2017-08-05T03:02:53.851Z,59.60
2017-08-05T03:05:22.724Z,60.50
2017-08-05T03:07:51.630Z,59.90
2017-08-05T03:10:20.522Z,60.00
2017-08-05T03:12:49.384Z,60.30
2017-08-05T03:15:18.274Z,60.40
2017-08-05T03:17:47.161Z,60.70
2017-08-05T03:20:16.061Z,60.80
2017-08-05T03:22:44.953Z,60.80
2017-08-05T03:25:13.834Z,60.90
2017-08-05T03:27:42.713Z,61.00
2017-08-05T03:30:11.590Z,61.20
2017-08-05T03:32:41.251Z,61.50
2017-08-05T03:35:10.141Z,61.40
2017-08-05T03:37:39.996Z,61.50
2017-08-05T03:40:08.837Z,61.40
2017-08-05T03:42:37.731Z,61.20
2017-08-05T03:45:06.619Z,61.10
2017-08-05T03:47:35.140Z,61.00
2017-08-05T03:50:04.017Z,60.90
2017-08-05T03:52:32.902Z,60.90
2017-08-05T03:55:01.764Z,61.10
2017-08-05T03:57:30.652Z,61.20
2017-08-05T03:59:59.549Z,61.10
2017-08-05T04:02:28.436Z,61.20
2017-08-05T04:04:57.313Z,61.10
2017-08-05T04:07:26.171Z,61.20
2017-08-05T04:09:55.079Z,61.30
2017-08-05T04:12:24.746Z,61.30
2017-08-05T04:14:53.634Z,61.30
2017-08-05T04:17:22.493Z,61.30
2017-08-05T04:19:51.395Z,61.40
2017-08-05T04:22:24.427Z,61.40
2017-08-05T04:25:01.889Z,61.40
2017-08-05T04:27:35.568Z,61.40
2017-08-05T04:30:07.547Z,61.20
2017-08-05T04:32:37.359Z,61.40
2017-08-05T04:35:06.244Z,61.40
2017-08-05T04:37:35.125Z,61.30
2017-08-05T04:40:04.029Z,61.30
2017-08-05T04:42:32.919Z,61.30
2017-08-05T04:45:01.802Z,61.30
2017-08-05T04:47:30.703Z,61.30
2017-08-05T04:50:00.099Z,61.30
2017-08-05T04:52:28.995Z,61.20
2017-08-05T04:54:57.901Z,61.40
2017-08-05T04:57:26.794Z,61.40
2017-08-05T04:59:55.741Z,61.80
2017-08-05T05:02:24.712Z,61.70
2017-08-05T05:04:53.580Z,61.40
2017-08-05T05:10:16.936Z,61.60
2017-08-05T05:12:46.542Z,61.50
2017-08-05T05:15:15.435Z,61.60
2017-08-05T05:17:44.136Z,61.50
2017-08-05T05:20:13.017Z,61.40
2017-08-05T05:22:42.498Z,61.20
2017-08-05T05:25:11.396Z,61.00
2017-08-05T05:27:41.045Z,60.60
2017-08-05T05:30:09.939Z,60.40
2017-08-05T05:32:38.827Z,60.30
2017-08-05T05:35:07.714Z,60.10
2017-08-05T05:37:36.601Z,59.90
2017-08-05T05:40:05.499Z,59.50
2017-08-05T05:42:35.658Z,59.40
2017-08-05T05:45:05.273Z,59.40
2017-08-05T05:47:34.156Z,59.30
2017-08-05T05:52:58.578Z,59.10
2017-08-05T05:55:27.480Z,59.10
2017-08-05T05:57:56.368Z,58.90
2017-08-05T06:00:26.022Z,59.50
2017-08-05T06:02:54.915Z,58.80
2017-08-05T06:05:24.320Z,59.00
2017-08-05T06:07:53.210Z,58.90
2017-08-05T06:10:22.107Z,58.80
2017-08-05T06:12:50.992Z,58.70
2017-08-05T06:15:19.881Z,58.60
2017-08-05T06:17:48.725Z,58.60
2017-08-05T06:20:17.633Z,58.40
2017-08-05T06:22:51.058Z,58.00
2017-08-05T06:31:06.776Z,58.20
2017-08-05T06:33:35.670Z,58.70
2017-08-05T06:36:04.573Z,58.10
2017-08-05T06:38:33.458Z,57.80
2017-08-05T06:41:02.335Z,57.70
2017-08-05T06:43:31.217Z,57.60
2017-08-05T06:46:00.861Z,57.10
2017-08-05T06:48:29.757Z,57.10
2017-08-05T06:50:58.636Z,57.20
2017-08-05T06:53:27.519Z,57.00
2017-08-05T06:55:56.385Z,56.90
2017-08-05T06:58:26.062Z,56.60
2017-08-05T07:00:54.957Z,56.50
2017-08-05T07:03:23.857Z,56.30
2017-08-05T07:05:52.711Z,56.00
2017-08-05T07:08:21.674Z,55.90
2017-08-05T07:10:50.574Z,55.80
2017-08-05T07:13:19.486Z,55.70
2017-08-05T07:15:48.369Z,55.40
2017-08-05T07:18:17.913Z,55.30
2017-08-05T07:23:36.877Z,54.80
2017-08-05T07:26:06.718Z,54.70
2017-08-05T07:28:37.659Z,54.70
2017-08-05T07:34:00.145Z,54.30
2017-08-05T07:36:29.808Z,53.50
2017-08-05T07:38:58.714Z,53.40
2017-08-05T07:41:28.302Z,52.60
2017-08-05T07:43:57.202Z,51.60
2017-08-05T07:46:26.107Z,50.40
2017-08-05T07:48:55.582Z,49.40
2017-08-05T07:51:24.472Z,49.90
2017-08-05T07:53:53.364Z,49.50
2017-08-05T07:56:22.259Z,49.70
2017-08-05T07:58:52.528Z,49.20
2017-08-05T08:01:21.810Z,48.30
2017-08-05T08:03:50.705Z,47.50
2017-08-05T08:06:19.599Z,47.10
2017-08-05T08:11:51.233Z,46.30
2017-08-05T08:14:20.909Z,45.90
2017-08-05T08:16:51.283Z,45.90
2017-08-05T08:19:20.188Z,45.80
2017-08-05T08:21:49.090Z,45.60
2017-08-05T08:24:17.983Z,45.30
2017-08-05T08:26:47.411Z,44.80
2017-08-05T08:29:16.074Z,44.10
2017-08-05T08:31:46.379Z,43.80
2017-08-05T08:45:58.812Z,42.50
2017-08-05T08:48:34.527Z,41.70
2017-08-05T08:51:03.927Z,41.70
2017-08-05T08:53:32.575Z,41.70
2017-08-05T08:56:01.196Z,41.60
2017-08-05T08:58:30.584Z,41.10
2017-08-05T09:00:59.200Z,40.70
2017-08-05T09:03:28.578Z,40.40
2017-08-05T09:05:57.206Z,40.30
2017-08-05T09:08:25.817Z,40.20
2017-08-05T09:10:54.395Z,40.10
2017-08-05T09:13:23.018Z,39.60
2017-08-05T09:15:51.637Z,39.70
2017-08-05T09:18:21.101Z,40.00
2017-08-05T09:20:49.727Z,40.00
2017-08-05T09:23:18.368Z,39.80
2017-08-05T09:25:46.999Z,40.00
2017-08-05T09:28:15.616Z,39.50
2017-08-05T09:30:44.230Z,39.60
2017-08-05T09:33:12.858Z,39.10
2017-08-05T09:38:33.346Z,39.30
2017-08-05T09:41:02.986Z,38.60
2017-08-05T09:43:31.678Z,38.60
2017-08-05T09:46:00.379Z,38.30
2017-08-05T09:51:06.846Z,38.40
2017-08-05T09:53:35.934Z,38.50
2017-08-05T09:56:05.526Z,37.70
2017-08-05T09:58:34.150Z,37.80
2017-08-05T10:01:02.743Z,38.00
2017-08-05T10:03:31.377Z,38.20
2017-08-05T10:05:59.997Z,37.80
2017-08-05T10:08:28.656Z,37.60
2017-08-05T10:10:58.040Z,37.50
2017-08-05T10:13:26.668Z,37.50
2017-08-05T10:15:55.453Z,37.40
2017-08-05T10:18:25.196Z,37.30
2017-08-05T10:20:54.820Z,37.70
2017-08-05T10:23:23.451Z,37.10
2017-08-05T10:25:52.076Z,37.20
2017-08-05T10:28:20.692Z,37.60
2017-08-05T10:30:49.308Z,37.80
2017-08-05T10:33:18.665Z,37.40
2017-08-05T10:35:47.303Z,37.40
2017-08-05T10:38:15.934Z,37.40
2017-08-05T10:40:44.554Z,37.20
2017-08-05T10:43:13.904Z,36.60
2017-08-05T10:45:42.501Z,37.20
2017-08-05T10:48:11.143Z,36.20
2017-08-05T10:50:39.774Z,36.20
2017-08-05T10:53:08.401Z,35.60
2017-08-05T10:55:36.978Z,35.50
2017-08-05T10:58:05.601Z,34.90
2017-08-05T11:00:34.217Z,34.60
2017-08-05T11:03:02.811Z,35.10
2017-08-05T11:05:31.429Z,34.80
2017-08-05T11:08:00.813Z,35.70
2017-08-05T11:10:29.450Z,35.50
2017-08-05T11:12:58.079Z,35.60
2017-08-05T11:15:26.689Z,35.80
2017-08-05T11:17:55.310Z,35.80
2017-08-05T11:20:23.947Z,36.00
2017-08-05T11:22:52.573Z,35.90
2017-08-05T11:25:21.214Z,36.10
2017-08-05T11:27:49.838Z,36.40
2017-08-05T11:30:18.453Z,36.30
2017-08-05T11:32:47.077Z,36.30
2017-08-05T11:35:15.692Z,36.00
2017-08-05T11:37:44.285Z,35.80
2017-08-05T11:40:12.913Z,35.40
2017-08-05T11:42:41.534Z,35.40
2017-08-05T11:45:10.148Z,35.00
2017-08-05T11:47:38.778Z,34.50
2017-08-05T11:50:07.397Z,34.50
2017-08-05T11:52:36.013Z,34.10
2017-08-05T11:55:04.634Z,34.00
2017-08-05T11:57:33.263Z,34.10
2017-08-05T12:00:01.882Z,33.70
2017-08-05T12:02:30.518Z,33.40
2017-08-05T12:04:59.155Z,33.50
2017-08-05T12:07:27.743Z,33.50
2017-08-05T12:09:56.373Z,33.40
2017-08-05T12:12:24.814Z,33.40
2017-08-05T12:14:53.437Z,33.40
2017-08-05T12:17:22.048Z,33.50
2017-08-05T12:19:50.669Z,33.30
2017-08-05T12:22:19.298Z,33.40
2017-08-05T12:24:47.916Z,33.20
2017-08-05T12:27:16.546Z,32.90
2017-08-05T12:29:45.155Z,32.70
2017-08-05T12:32:14.536Z,32.70
2017-08-05T12:34:43.174Z,32.70
2017-08-05T12:37:11.798Z,32.60
2017-08-05T12:39:40.429Z,32.30
2017-08-05T12:42:09.044Z,32.10
2017-08-05T12:44:37.664Z,32.10
2017-08-05T12:47:06.289Z,31.90
2017-08-05T12:49:34.910Z,32.00
2017-08-05T12:52:03.512Z,31.90
2017-08-05T12:54:32.136Z,32.00
2017-08-05T12:57:00.727Z,32.40
2017-08-05T12:59:29.345Z,32.60
2017-08-05T13:01:57.968Z,32.90
2017-08-05T13:04:27.369Z,33.70
2017-08-05T13:06:56.001Z,33.60
2017-08-05T13:09:24.633Z,33.50
2017-08-05T13:11:53.265Z,33.40
2017-08-05T13:14:21.886Z,33.60
2017-08-05T13:16:50.514Z,33.80
2017-08-05T13:19:19.137Z,33.50
2017-08-05T13:21:47.756Z,33.40
2017-08-05T13:24:16.343Z,33.50
2017-08-05T13:26:44.967Z,33.60
2017-08-05T13:29:13.598Z,33.40
2017-08-05T13:31:42.225Z,33.80
2017-08-05T13:34:10.859Z,34.40
2017-08-05T13:36:39.447Z,34.60
2017-08-05T13:39:07.887Z,34.50
2017-08-05T13:41:36.510Z,34.40
2017-08-05T13:44:05.110Z,34.50
2017-08-05T13:46:33.725Z,34.90
2017-08-05T13:49:03.118Z,34.00
2017-08-05T13:51:31.745Z,33.90
2017-08-05T13:54:00.381Z,33.80
2017-08-05T13:56:29.781Z,33.70
2017-08-05T13:58:58.406Z,34.10
2017-08-05T14:01:27.031Z,34.10
2017-08-05T14:03:55.934Z,34.20
2017-08-05T14:06:24.608Z,34.10
2017-08-05T14:08:53.236Z,34.30
2017-08-05T14:11:22.594Z,34.40
2017-08-05T14:13:51.187Z,34.40
2017-08-05T14:16:19.801Z,34.50
2017-08-05T14:18:49.190Z,34.30
2017-08-05T14:21:17.806Z,34.00
2017-08-05T14:23:47.197Z,33.30
2017-08-05T14:26:16.578Z,33.00
2017-08-05T14:28:45.188Z,33.10
2017-08-05T14:31:13.886Z,32.90
2017-08-05T14:33:43.283Z,32.40
2017-08-05T14:36:12.685Z,32.40
2017-08-05T14:38:41.318Z,32.40
2017-08-05T14:41:09.943Z,32.20
2017-08-05T14:43:38.570Z,32.20
2017-08-05T14:46:07.194Z,32.40
2017-08-05T14:48:35.820Z,32.80
2017-08-05T14:51:05.204Z,33.20
2017-08-05T14:53:33.653Z,33.10
2017-08-05T14:56:02.290Z,33.30
2017-08-05T14:58:31.694Z,33.90
2017-08-05T15:01:01.108Z,34.10
2017-08-05T15:03:29.720Z,34.00
2017-08-05T15:05:58.321Z,34.30
2017-08-05T15:08:26.950Z,34.60
2017-08-05T15:10:56.354Z,34.90
2017-08-05T15:13:25.758Z,35.20
2017-08-05T15:15:55.163Z,35.50
2017-08-05T15:18:23.789Z,35.40
2017-08-05T15:20:52.382Z,35.60
2017-08-05T15:23:20.997Z,35.80
2017-08-05T15:25:49.644Z,36.00
2017-08-05T15:28:18.270Z,36.40
2017-08-05T15:30:46.906Z,36.70
2017-08-05T15:33:15.525Z,36.90
2017-08-05T15:35:44.145Z,36.90
2017-08-05T15:41:00.754Z,38.00
2017-08-05T15:43:29.378Z,37.30
2017-08-05T15:45:58.014Z,37.70
2017-08-05T15:48:26.653Z,37.90
2017-08-05T15:50:55.303Z,38.20
2017-08-05T15:53:24.705Z,38.70
2017-08-05T15:55:55.461Z,39.60
2017-08-05T16:03:46.782Z,39.40
2017-08-05T16:06:16.238Z,39.40
2017-08-05T16:23:40.310Z,41.70
2017-08-05T16:26:37.033Z,43.20
2017-08-05T16:29:10.545Z,45.40
2017-08-05T16:31:39.171Z,45.30
2017-08-05T16:39:49.317Z,48.50
2017-08-05T16:44:59.484Z,50.20
2017-08-05T16:47:28.887Z,51.10
2017-08-05T16:49:58.277Z,52.20
2017-08-05T16:52:27.189Z,52.10
2017-08-05T16:54:56.573Z,56.30
2017-08-05T16:57:25.202Z,56.30
2017-08-05T16:59:53.818Z,57.90
2017-08-05T17:02:23.041Z,59.50
2017-08-05T17:10:47.990Z,61.20
2017-08-05T17:13:16.893Z,62.00
2017-08-05T17:15:45.781Z,62.40
2017-08-05T17:18:14.669Z,62.80
2017-08-05T17:20:43.560Z,62.90
2017-08-05T17:29:29.833Z,62.70
2017-08-05T17:32:00.938Z,63.00
2017-08-05T17:34:29.850Z,63.00
2017-08-05T17:36:58.739Z,63.30
2017-08-05T17:39:27.634Z,63.80
2017-08-05T17:41:56.541Z,64.50
2017-08-05T17:44:25.442Z,64.90
2017-08-05T17:46:54.322Z,65.40
2017-08-05T17:49:23.209Z,65.90
2017-08-05T17:51:52.099Z,65.90
2017-08-05T17:54:21.001Z,66.20
2017-08-05T17:56:49.887Z,66.50
2017-08-05T17:59:18.766Z,66.70
2017-08-05T18:01:47.670Z,66.80
2017-08-05T18:04:16.954Z,66.80
2017-08-05T18:06:45.878Z,67.00
2017-08-05T18:09:16.446Z,68.00
2017-08-05T18:11:45.396Z,67.90
2017-08-05T18:14:14.276Z,68.60
2017-08-05T18:16:43.152Z,69.20
2017-08-05T18:19:12.046Z,69.50
2017-08-05T18:21:41.609Z,69.90
2017-08-05T18:24:10.507Z,69.60
2017-08-05T18:26:39.403Z,69.50
2017-08-05T18:29:08.289Z,69.70
2017-08-05T18:31:37.195Z,70.50
2017-08-05T18:34:06.506Z,71.00
2017-08-05T18:36:35.389Z,71.40
2017-08-05T18:39:04.086Z,71.80
2017-08-05T18:41:32.978Z,71.70
2017-08-05T18:44:01.957Z,71.50
2017-08-05T18:46:30.868Z,71.40
2017-08-05T18:48:59.729Z,71.70
2017-08-05T18:51:28.621Z,72.10
2017-08-05T18:53:57.826Z,72.40
2017-08-05T18:56:27.779Z,72.70
2017-08-05T18:58:56.660Z,72.80
2017-08-05T19:01:26.525Z,73.10
2017-08-05T19:03:56.211Z,73.50
2017-08-05T19:06:24.781Z,73.40
2017-08-05T19:08:53.676Z,74.00
2017-08-05T19:11:22.532Z,74.80
2017-08-05T19:13:51.421Z,75.20
2017-08-05T19:16:20.323Z,76.10
2017-08-05T19:18:49.254Z,76.40
2017-08-05T19:21:18.146Z,77.90
2017-08-05T19:23:48.521Z,78.60
2017-08-05T19:26:17.410Z,78.50
2017-08-05T19:28:46.297Z,78.70
2017-08-05T19:31:15.197Z,78.80
2017-08-05T19:33:44.573Z,79.10
2017-08-05T19:36:13.593Z,78.80
2017-08-05T19:38:42.298Z,78.60
2017-08-05T19:41:12.592Z,78.90
2017-08-05T19:43:41.529Z,79.40
2017-08-05T19:46:10.427Z,79.30
2017-08-05T19:48:39.315Z,79.20
2017-08-05T19:51:08.280Z,79.00
2017-08-05T19:53:37.166Z,79.10
2017-08-05T19:56:06.045Z,79.00
2017-08-05T19:58:35.502Z,79.40
2017-08-05T20:01:04.394Z,79.80
2017-08-05T20:03:33.299Z,80.20
2017-08-05T20:06:05.644Z,80.20
2017-08-05T20:08:34.829Z,80.20
2017-08-05T20:11:04.563Z,80.50
2017-08-05T20:13:33.445Z,80.40
2017-08-05T20:16:02.380Z,80.40
2017-08-05T20:18:31.930Z,80.20
2017-08-05T20:21:00.857Z,80.30
2017-08-05T20:23:29.751Z,80.20
2017-08-05T20:25:58.769Z,80.30
2017-08-05T20:28:28.447Z,80.80
2017-08-05T20:30:57.349Z,80.70
2017-08-05T20:33:26.264Z,80.70
2017-08-05T20:35:55.910Z,81.40
2017-08-05T20:38:24.821Z,81.20
2017-08-05T20:40:53.680Z,81.50
2017-08-05T20:43:22.534Z,81.50
2017-08-05T20:45:51.384Z,81.40
2017-08-05T20:48:20.254Z,81.90
2017-08-05T20:50:49.570Z,82.20
2017-08-05T20:53:18.459Z,82.30
2017-08-05T20:55:47.348Z,82.80
2017-08-05T20:58:16.229Z,82.70
2017-08-05T21:00:45.113Z,83.20
2017-08-05T21:03:14.010Z,83.70
2017-08-05T21:05:42.904Z,83.80
2017-08-05T21:08:11.782Z,83.60
2017-08-05T21:10:40.689Z,83.60
2017-08-05T21:13:10.654Z,84.20
2017-08-05T21:15:39.558Z,83.20
2017-08-05T21:18:08.471Z,83.20
2017-08-05T21:20:37.385Z,83.20
2017-08-05T21:23:06.290Z,83.20
2017-08-05T21:25:35.191Z,83.70
2017-08-05T21:28:04.071Z,83.90
2017-08-05T21:30:32.968Z,83.90
2017-08-05T21:33:01.870Z,83.50
2017-08-05T21:35:30.764Z,83.80
2017-08-05T21:37:59.670Z,83.70
2017-08-05T21:40:28.575Z,83.50
2017-08-05T21:42:57.470Z,83.70
2017-08-05T21:45:26.342Z,84.10
2017-08-05T21:47:55.251Z,83.90
2017-08-05T21:50:24.161Z,83.90
2017-08-05T21:52:53.821Z,83.80
2017-08-05T21:55:22.718Z,83.80
2017-08-05T21:57:51.612Z,83.40
2017-08-05T22:00:20.150Z,83.10
2017-08-05T22:02:49.046Z,83.20
2017-08-05T22:05:17.945Z,83.10
2017-08-05T22:07:46.841Z,83.00
2017-08-05T22:10:15.743Z,83.00
2017-08-05T22:12:44.625Z,82.90
2017-08-05T22:15:13.520Z,83.20
2017-08-05T22:17:42.215Z,82.90
2017-08-05T22:20:11.118Z,83.00
2017-08-05T22:22:40.022Z,83.10
2017-08-05T22:25:08.912Z,83.10
2017-08-05T22:27:37.807Z,83.40
2017-08-05T22:30:06.701Z,83.40
2017-08-05T22:32:35.601Z,83.50
2017-08-05T22:35:04.497Z,83.50
2017-08-05T22:37:33.397Z,83.50
2017-08-05T22:40:02.281Z,83.30
2017-08-05T22:42:31.172Z,83.40
2017-08-05T22:45:00.065Z,83.40
2017-08-05T22:47:29.005Z,83.40
2017-08-05T22:49:57.889Z,83.30
2017-08-05T22:52:26.773Z,83.50
2017-08-05T22:54:55.661Z,83.60
2017-08-05T22:57:24.556Z,83.70
2017-08-05T22:59:53.459Z,83.80
2017-08-05T23:02:22.344Z,83.70
2017-08-05T23:04:51.235Z,83.70
2017-08-05T23:07:20.134Z,83.80
2017-08-05T23:09:49.034Z,83.90
2017-08-05T23:12:17.901Z,84.00
2017-08-05T23:14:46.798Z,84.10
2017-08-05T23:17:15.693Z,84.10
2017-08-05T23:19:44.582Z,84.20
2017-08-05T23:22:13.493Z,84.50
2017-08-05T23:24:42.395Z,84.40
2017-08-05T23:27:11.285Z,84.20
2017-08-05T23:29:40.152Z,84.10
2017-08-05T23:32:09.011Z,84.00
2017-08-05T23:34:37.915Z,84.00
2017-08-05T23:37:07.569Z,83.60
2017-08-05T23:39:36.461Z,83.60
2017-08-05T23:42:05.360Z,83.60
2017-08-05T23:44:34.249Z,83.60
2017-08-05T23:47:03.153Z,83.40
2017-08-05T23:49:32.065Z,83.50
2017-08-05T23:52:00.934Z,83.40
2017-08-05T23:54:29.840Z,83.30
2017-08-05T23:56:58.732Z,83.20
2017-08-05T23:59:27.624Z,82.90
